Time;durP1;ratioP1;P1;durP2;ratioP2;P2;SDS_P1;SDS_P2;PMS_P1;PMS_P2;Temp;Humidity;BMP_temperature;BMP_pressure;BME280_temperature;BME280_humidity;BME280_pressure;Samples;Min_cycle;Max_cycle;Signal;HPM_P1;HPM_P2
2023/07/17 00:00:04;;;;;;;;;;;;;;;26.41;46.50;99786.41;324061;30;3734;-76
2023/07/17 00:00:15;;;;;;;;;;;;;;;26.41;46.56;99789.09;324158;30;3736;-76
2023/07/17 00:00:25;;;;;;;;;;;;;;;26.42;46.45;99788.94;324683;30;3250;-76
2023/07/17 00:00:36;;;;;;;;;;;;;;;26.43;46.50;99781.69;321717;30;3219;-76
2023/07/17 00:00:47;;;;;;;;;;;;;;;26.46;46.33;99797.47;322031;30;3348;-76
2023/07/17 00:00:58;;;;;;;;;;;;;;;26.47;46.42;99785.72;324369;30;981;-77
2023/07/17 00:01:08;;;;;;;;;;;;;;;26.47;46.39;99796.47;322659;30;2262;-77
2023/07/17 00:01:19;;;;;;;;;;;;;;;26.47;46.30;99797.31;323857;30;2689;-77
2023/07/17 00:01:29;;;;;;;;;;;;;;;26.45;46.71;99787.72;322284;30;3247;-77
2023/07/17 00:01:39;;;;;;;;;;;;;;;26.43;46.44;99789.75;322023;30;1552;-76
2023/07/17 00:01:49;;;;;;;;;;;;;;;26.46;46.65;99794.78;317083;30;3642;-75
2023/07/17 00:02:00;;;;;;;;;;;;;;;26.43;46.54;99787.06;313251;31;4896;-75
2023/07/17 00:02:10;;;;;;;;;;;;;;;26.37;46.45;99790.41;315106;31;1249;-76
2023/07/17 00:02:20;;;;;;;;;;;;;;;26.36;46.91;99791.41;311396;31;4920;-75
2023/07/17 00:02:30;;;;;;;;;;;;;;;26.37;46.67;99790.41;310063;31;4794;-75
2023/07/17 00:02:41;;;;;;;;;;;;;;;26.40;46.72;99790.09;311924;31;873;-75
2023/07/17 00:02:51;;;;;;;;;;;;;;;26.41;46.64;99791.78;311147;31;3932;-75
2023/07/17 00:03:01;;;;;;;;;;;;;;;26.42;46.74;99788.09;310433;31;3448;-75
2023/07/17 00:03:11;;;;;;;;;;;;;;;26.41;46.74;99787.25;309549;31;1181;-75
2023/07/17 00:03:22;;;;;;;;;;;;;;;26.43;46.45;99795.09;309612;31;3331;-75
2023/07/17 00:03:32;;;;;;;;;;;;;;;26.44;46.58;99791.41;306000;32;3913;-73
2023/07/17 00:03:42;;;;;;;;;;;;;;;26.45;46.46;99795.78;304257;32;1363;-73
2023/07/17 00:03:52;;;;;;;;;;;;;;;26.45;46.48;99793.09;301896;32;5578;-73
2023/07/17 00:04:04;;;;;;;;;;;;;;;26.47;46.27;99788.41;302237;32;5539;-73
2023/07/17 00:04:14;;;;;;;;;;;;;;;26.50;46.40;99790.78;304204;32;1363;-73
2023/07/17 00:04:24;;;;;;;;;;;;;;;26.51;46.44;99787.94;296198;33;850;-73
2023/07/17 00:04:36;;;;;;;;;;;;;;;26.54;46.19;99794.84;293853;33;8077;-73
2023/07/17 00:04:46;;;;;;;;;;;;;;;26.54;46.34;99792.16;293560;33;6200;-73
2023/07/17 00:04:56;;;;;;;;;;;;;;;26.56;46.35;99787.47;295929;33;1245;-73
2023/07/17 00:05:07;;;;;;;;;;;;;;;26.55;46.47;99795.69;293748;33;5759;-73
2023/07/17 00:05:17;;;;;;;;;;;;;;;26.55;46.57;99788.47;293821;33;4816;-73
2023/07/17 00:05:28;;;;;;;;;;;;;;;26.54;46.62;99792.16;296069;33;822;-73
2023/07/17 00:05:38;;;;;;;;;;;;;;;26.55;46.35;99788.47;293887;33;5033;-73
2023/07/17 00:05:50;;;;;;;;;;;;;;;26.57;46.24;99791.00;291021;33;5623;-73
2023/07/17 00:06:00;;;;;;;;;;;;;;;26.57;46.61;99794.50;288315;34;7003;-73
2023/07/17 00:06:10;;;;;;;;;;;;;;;26.55;46.13;99793.84;289236;34;911;-73
2023/07/17 00:06:20;;;;;;;;;;;;;;;26.48;46.02;99792.78;286098;34;9652;-73
2023/07/17 00:08:06;;;;;;;;;;;;;;;26.25;46.33;99802.38;2482624;27;19927;-73
2023/07/17 00:08:17;;;;;;;;;;;;;;;26.23;46.71;99793.63;353020;28;843;-73
2023/07/17 00:08:27;;;;;;;;;;;;;;;26.24;46.53;99795.31;350283;28;1207;-73
2023/07/17 00:08:37;;;;;;;;;;;;;;;26.25;46.51;99799.69;348901;28;1125;-73
2023/07/17 00:08:47;;;;;;;;;;;;;;;26.27;46.70;99805.75;347520;28;859;-73
2023/07/17 00:08:57;;;;;;;;;;;;;;;26.31;46.37;99799.09;345682;28;1581;-73
2023/07/17 00:09:08;;;;;;;;;;;;;;;26.33;46.38;99794.41;348690;28;1434;-73
2023/07/17 00:09:18;;;;;;;;;;;;;;;26.35;46.65;99798.63;347550;28;804;-73
2023/07/17 00:09:28;;;;;;;;;;;;;;;26.38;46.32;99802.81;345237;28;3962;-73
2023/07/17 00:09:38;;;;;;;;;;;;;;;26.39;46.32;99801.81;343170;28;3356;-73
2023/07/17 00:09:49;;;;;;;;;;;;;;;26.40;46.27;99795.44;345536;28;5555;-73
2023/07/17 00:09:59;;;;;;;;;;;;;;;26.40;46.46;99806.19;345897;28;5690;-73
2023/07/17 00:10:09;;;;;;;;;;;;;;;26.40;46.49;99798.13;346093;28;1197;-74
2023/07/17 00:10:19;;;;;;;;;;;;;;;26.39;46.35;99801.81;344322;28;1782;-74
2023/07/17 00:10:30;;;;;;;;;;;;;;;26.37;46.37;99801.13;346625;28;1197;-74
2023/07/17 00:10:41;;;;;;;;;;;;;;;26.34;46.47;99802.31;347537;28;1490;-74
2023/07/17 00:10:51;;;;;;;;;;;;;;;26.34;46.79;99806.81;346160;28;824;-73
2023/07/17 00:11:01;;;;;;;;;;;;;;;26.34;46.42;99802.31;346214;28;1244;-73
2023/07/17 00:11:11;;;;;;;;;;;;;;;26.36;46.38;99804.81;347500;28;1215;-73
2023/07/17 00:11:22;;;;;;;;;;;;;;;26.38;46.42;99802.81;347548;28;840;-73
2023/07/17 00:11:33;;;;;;;;;;;;;;;26.40;46.27;99800.81;346153;28;1069;-73
2023/07/17 00:11:43;;;;;;;;;;;;;;;26.41;46.54;99791.78;345082;28;876;-73
2023/07/17 00:11:53;;;;;;;;;;;;;;;26.43;46.46;99801.31;346078;28;998;-73
2023/07/17 00:12:03;;;;;;;;;;;;;;;26.46;46.46;99801.00;346152;28;1017;-73
2023/07/17 00:12:14;;;;;;;;;;;;;;;26.49;46.17;99799.84;346555;28;867;-73
2023/07/17 00:12:24;;;;;;;;;;;;;;;26.52;46.13;99796.84;347279;28;1348;-73
2023/07/17 00:12:34;;;;;;;;;;;;;;;26.54;46.26;99802.88;345913;28;1203;-73
2023/07/17 00:12:44;;;;;;;;;;;;;;;26.55;45.94;99804.56;348794;28;1460;-73
2023/07/17 00:12:55;;;;;;;;;;;;;;;26.55;45.80;99793.84;348887;28;1223;-73
2023/07/17 00:13:05;;;;;;;;;;;;;;;26.55;46.17;99799.19;346162;28;1310;-73
2023/07/17 00:13:15;;;;;;;;;;;;;;;26.55;46.26;99799.19;346230;28;867;-73
2023/07/17 00:13:25;;;;;;;;;;;;;;;26.55;46.21;99793.84;346089;28;1331;-73
2023/07/17 00:13:36;;;;;;;;;;;;;;;26.55;46.23;99804.56;346307;28;705;-73
2023/07/17 00:13:46;;;;;;;;;;;;;;;26.56;46.26;99797.34;344642;28;1400;-74
2023/07/17 00:13:56;;;;;;;;;;;;;;;26.56;46.01;99800.88;345897;28;1001;-74
2023/07/17 00:14:06;;;;;;;;;;;;;;;26.56;46.01;99795.50;344692;28;1369;-74
2023/07/17 00:14:17;;;;;;;;;;;;;;;26.57;45.90;99799.88;344584;28;873;-74
2023/07/17 00:14:27;;;;;;;;;;;;;;;26.59;45.94;99797.03;346503;28;887;-74
2023/07/17 00:14:37;;;;;;;;;;;;;;;26.60;45.84;99796.88;346929;28;1455;-74
2023/07/17 00:14:47;;;;;;;;;;;;;;;26.60;45.75;99796.03;343714;28;1306;-74
2023/07/17 00:14:58;;;;;;;;;;;;;;;26.59;46.05;99797.88;342815;28;1335;-74
2023/07/17 00:15:08;;;;;;;;;;;;;;;26.59;45.83;99800.56;343455;28;1232;-73
2023/07/17 00:15:18;;;;;;;;;;;;;;;26.55;45.95;99798.34;343585;28;820;-73
2023/07/17 00:15:28;;;;;;;;;;;;;;;26.51;46.28;99803.22;343432;28;899;-74
2023/07/17 00:15:39;;;;;;;;;;;;;;;26.49;46.09;99794.47;342205;28;856;-74
2023/07/17 00:15:49;;;;;;;;;;;;;;;26.47;46.13;99802.69;339504;28;934;-74
2023/07/17 00:16:00;;;;;;;;;;;;;;;26.47;46.20;99802.69;338594;29;1365;-74
2023/07/17 00:16:10;;;;;;;;;;;;;;;26.47;46.18;99799.16;339428;29;1479;-73
2023/07/17 00:16:20;;;;;;;;;;;;;;;26.48;46.21;99800.84;339167;29;1309;-73
2023/07/17 00:16:30;;;;;;;;;;;;;;;26.49;46.32;99797.16;337947;29;998;-73
2023/07/17 00:16:41;;;;;;;;;;;;;;;26.49;46.08;99800.69;336800;29;1127;-73
2023/07/17 00:16:51;;;;;;;;;;;;;;;26.50;46.10;99797.00;335607;29;802;-73
2023/07/17 00:17:02;;;;;;;;;;;;;;;26.51;46.37;99804.06;332894;29;1390;-73
2023/07/17 00:17:15;;;;;;;;;;;;;;;26.52;46.20;99800.38;334480;29;862;-73
2023/07/17 00:17:26;;;;;;;;;;;;;;;26.55;45.86;99798.34;335530;29;927;-74
2023/07/17 00:17:36;;;;;;;;;;;;;;;26.55;45.96;99801.88;334259;29;1416;-74
2023/07/17 00:17:47;;;;;;;;;;;;;;;26.57;45.97;99799.88;331453;29;973;-74
2023/07/17 00:17:57;;;;;;;;;;;;;;;26.57;46.25;99797.19;330739;29;1692;-73
2023/07/17 00:18:07;;;;;;;;;;;;;;;26.58;46.18;99798.88;332843;29;1208;-73
2023/07/17 00:18:18;;;;;;;;;;;;;;;26.57;46.40;99802.56;333630;29;1840;-74
2023/07/17 00:18:30;;;;;;;;;;;;;;;26.56;46.28;99798.19;333859;29;1662;-74
2023/07/17 00:18:40;;;;;;;;;;;;;;;26.56;46.16;99800.88;330860;29;3911;-74
2023/07/17 00:18:51;;;;;;;;;;;;;;;26.56;46.08;99800.88;329110;29;4998;-74
2023/07/17 00:19:01;;;;;;;;;;;;;;;26.55;46.17;99799.19;331385;29;5526;-74
2023/07/17 00:19:11;;;;;;;;;;;;;;;26.54;46.14;99796.69;331728;29;1503;-74
2023/07/17 00:19:21;;;;;;;;;;;;;;;26.52;46.14;99802.22;330807;29;3194;-74
2023/07/17 00:19:31;;;;;;;;;;;;;;;26.53;46.03;99801.19;331769;29;751;-74
2023/07/17 00:19:44;;;;;;;;;;;;;;;26.49;46.13;99800.69;331694;29;1422;-74
2023/07/17 00:19:55;;;;;;;;;;;;;;;26.48;46.25;99799.00;331774;29;1383;-74
2023/07/17 00:20:06;;;;;;;;;;;;;;;26.49;46.01;99794.47;329339;30;1226;-75
2023/07/17 00:20:17;;;;;;;;;;;;;;;26.48;45.83;99798.16;328578;29;2146;-75
2023/07/17 00:20:27;;;;;;;;;;;;;;;26.45;46.41;99798.47;326200;30;2215;-75
2023/07/17 00:20:37;;;;;;;;;;;;;;;26.43;46.00;99792.41;324542;30;883;-75
2023/07/17 00:20:47;;;;;;;;;;;;;;;26.40;46.58;99795.44;328844;29;2282;-75
2023/07/17 00:20:57;;;;;;;;;;;;;;;26.38;46.55;99800.13;326381;30;2297;-74
2023/07/17 00:21:08;;;;;;;;;;;;;;;26.36;46.41;99799.47;323298;30;1256;-74
2023/07/17 00:21:18;;;;;;;;;;;;;;;26.31;46.80;99797.25;322699;30;2405;-75
2023/07/17 00:21:29;;;;;;;;;;;;;;;26.30;46.54;99805.44;322429;30;1524;-74
2023/07/17 00:21:39;;;;;;;;;;;;;;;26.28;46.72;99797.53;322192;30;1030;-72
2023/07/17 00:21:49;;;;;;;;;;;;;;;26.25;46.41;99803.22;320840;30;1282;-72
2023/07/17 00:21:59;;;;;;;;;;;;;;;26.25;46.68;99797.84;318972;30;2231;-72
2023/07/17 00:22:09;;;;;;;;;;;;;;;26.24;46.99;99795.31;318649;31;731;-73
2023/07/17 00:22:20;;;;;;;;;;;;;;;26.24;46.69;99800.69;322453;30;2722;-74
2023/07/17 00:22:30;;;;;;;;;;;;;;;26.24;46.69;99800.69;322506;30;2754;-74
2023/07/17 00:22:40;;;;;;;;;;;;;;;26.26;46.62;99798.69;323650;30;3409;-74
2023/07/17 00:22:51;;;;;;;;;;;;;;;26.28;46.59;99804.75;324431;30;1372;-74
2023/07/17 00:23:01;;;;;;;;;;;;;;;26.31;46.68;99797.25;318061;30;3340;-74
2023/07/17 00:23:11;;;;;;;;;;;;;;;26.34;46.34;99801.47;313638;31;3174;-74
2023/07/17 00:23:21;;;;;;;;;;;;;;;26.36;46.39;99799.47;313974;31;1445;-74
2023/07/17 00:23:32;;;;;;;;;;;;;;;26.36;46.73;99799.47;312075;31;2925;-73
2023/07/17 00:23:42;;;;;;;;;;;;;;;26.32;46.35;99798.09;311842;31;2266;-73
2023/07/17 00:23:52;;;;;;;;;;;;;;;26.28;46.24;99802.91;312879;31;1366;-73
2023/07/17 00:24:03;;;;;;;;;;;;;;;26.26;46.25;99807.59;313373;31;2290;-73
2023/07/17 00:24:13;;;;;;;;;;;;;;;26.28;46.48;99799.38;312206;31;2925;-73
2023/07/17 00:24:24;;;;;;;;;;;;;;;26.29;46.48;99799.22;315231;31;798;-73
2023/07/17 00:24:34;;;;;;;;;;;;;;;26.30;46.31;99795.53;314088;31;3799;-74
2023/07/17 00:24:44;;;;;;;;;;;;;;;26.32;46.30;99798.94;314525;31;4079;-73
2023/07/17 00:24:54;;;;;;;;;;;;;;;26.34;46.44;99801.47;314028;31;1580;-74
2023/07/17 00:25:05;;;;;;;;;;;;;;;26.36;46.38;99804.81;314988;31;5291;-73
2023/07/17 00:25:15;;;;;;;;;;;;;;;26.38;46.91;99802.81;310740;31;4727;-73
2023/07/17 00:25:28;;;;;;;;;;;;;;;26.38;46.58;99800.13;309631;31;1242;-73
2023/07/17 00:25:38;;;;;;;;;;;;;;;26.41;46.61;99797.13;310731;31;853;-73
2023/07/17 00:25:48;;;;;;;;;;;;;;;26.43;46.52;99797.78;306770;31;3707;-73
2023/07/17 00:25:59;;;;;;;;;;;;;;;26.43;46.52;99789.75;307554;31;3004;-74
2023/07/17 00:26:09;;;;;;;;;;;;;;;26.44;46.65;99796.78;311814;31;799;-74
2023/07/17 00:26:20;;;;;;;;;;;;;;;26.45;46.31;99793.94;309049;31;3394;-74
2023/07/17 00:26:31;;;;;;;;;;;;;;;26.45;46.29;99798.47;309703;31;4331;-74
2023/07/17 00:26:41;;;;;;;;;;;;;;;26.45;46.52;99793.09;310535;31;5598;-74
2023/07/17 00:26:51;;;;;;;;;;;;;;;26.43;46.28;99795.09;313008;31;802;-74
2023/07/17 00:27:01;;;;;;;;;;;;;;;26.44;46.45;99796.78;306523;31;6466;-74
2023/07/17 00:27:11;;;;;;;;;;;;;;;26.44;46.52;99799.47;301021;32;6956;-73
2023/07/17 00:27:22;;;;;;;;;;;;;;;26.44;46.42;99797.63;304095;32;1276;-73
2023/07/17 00:27:34;;;;;;;;;;;;;;;26.46;46.30;99800.16;301626;32;6963;-73
2023/07/17 00:27:44;;;;;;;;;;;;;;;26.46;46.50;99797.47;300022;32;7015;-73
2023/07/17 00:27:54;;;;;;;;;;;;;;;26.45;46.20;99801.16;298789;32;4209;-73
2023/07/17 00:28:05;;;;;;;;;;;;;;;26.44;46.11;99797.63;295821;32;5165;-73
2023/07/17 00:28:15;;;;;;;;;;;;;;;26.44;46.28;99800.31;295146;33;4455;-73
2023/07/17 00:28:25;;;;;;;;;;;;;;;26.44;46.27;99797.63;294068;33;1241;-73
2023/07/17 00:28:35;;;;;;;;;;;;;;;26.44;46.30;99794.94;296715;33;4839;-73
2023/07/17 00:28:45;;;;;;;;;;;;;;;26.46;46.27;99802.84;295638;33;6496;-73
2023/07/17 00:29:16;;;;;;;;;;;;;;;26.45;46.13;99799.31;292239;33;8337;-73
2023/07/17 00:31:35;;;;;;;;;;;;;;;26.52;46.05;99802.22;2500914;27;19937;-73
2023/07/17 00:31:45;;;;;;;;;;;;;;;26.51;46.06;99797.84;353091;28;1374;-73
2023/07/17 00:31:55;;;;;;;;;;;;;;;26.52;46.28;99795.00;351388;28;1735;-74
2023/07/17 00:32:05;;;;;;;;;;;;;;;26.53;46.10;99798.53;348316;28;1566;-74
2023/07/17 00:32:15;;;;;;;;;;;;;;;26.53;45.89;99801.19;348216;28;1326;-74
2023/07/17 00:32:26;;;;;;;;;;;;;;;26.54;46.19;99802.88;347500;28;1255;-74
2023/07/17 00:32:36;;;;;;;;;;;;;;;26.52;46.27;99804.88;349126;28;918;-74
2023/07/17 00:32:46;;;;;;;;;;;;;;;26.51;46.29;99798.69;350417;28;743;-74
2023/07/17 00:32:56;;;;;;;;;;;;;;;26.51;46.02;99803.22;348691;28;1316;-73
2023/07/17 00:33:08;;;;;;;;;;;;;;;26.51;46.02;99803.22;350969;28;1226;-73
2023/07/17 00:33:18;;;;;;;;;;;;;;;26.50;46.01;99796.16;351322;28;1029;-73
2023/07/17 00:33:28;;;;;;;;;;;;;;;26.50;46.05;99798.84;348884;28;1344;-73
2023/07/17 00:33:38;;;;;;;;;;;;;;;26.50;46.01;99796.16;348866;28;1227;-73
2023/07/17 00:33:48;;;;;;;;;;;;;;;26.49;46.04;99799.84;346124;28;1326;-73
2023/07/17 00:33:59;;;;;;;;;;;;;;;26.48;46.34;99798.16;345323;28;4575;-73
2023/07/17 00:34:09;;;;;;;;;;;;;;;26.47;46.11;99796.47;343493;28;848;-74
2023/07/17 00:34:19;;;;;;;;;;;;;;;26.48;46.50;99798.16;346263;28;868;-74
2023/07/17 00:34:29;;;;;;;;;;;;;;;26.49;46.49;99794.47;346167;28;836;-74
2023/07/17 00:34:40;;;;;;;;;;;;;;;26.49;46.43;99805.22;344841;28;1333;-74
2023/07/17 00:34:50;;;;;;;;;;;;;;;26.49;46.42;99800.69;344629;28;1885;-73
2023/07/17 00:35:00;;;;;;;;;;;;;;;26.48;46.29;99804.38;345343;28;1459;-73
2023/07/17 00:35:11;;;;;;;;;;;;;;;26.48;46.32;99801.69;343498;28;845;-73
2023/07/17 00:35:21;;;;;;;;;;;;;;;26.48;46.08;99800.84;343448;28;1045;-73
2023/07/17 00:35:31;;;;;;;;;;;;;;;26.47;46.20;99800.00;343400;28;1059;-73
2023/07/17 00:35:42;;;;;;;;;;;;;;;26.47;46.15;99801.84;346092;28;1056;-73
2023/07/17 00:35:52;;;;;;;;;;;;;;;26.44;46.21;99803.00;347589;28;828;-73
2023/07/17 00:36:02;;;;;;;;;;;;;;;26.40;45.99;99811.56;347009;28;1453;-73
2023/07/17 00:36:12;;;;;;;;;;;;;;;26.37;46.07;99803.81;347646;28;741;-73
2023/07/17 00:36:23;;;;;;;;;;;;;;;26.36;46.26;99804.81;349025;28;768;-73
2023/07/17 00:36:33;;;;;;;;;;;;;;;26.34;46.15;99802.31;347766;28;1023;-73
2023/07/17 00:36:43;;;;;;;;;;;;;;;26.33;46.21;99810.50;347501;28;976;-73
2023/07/17 00:36:53;;;;;;;;;;;;;;;26.34;46.07;99812.19;347582;28;863;-73
2023/07/17 00:37:04;;;;;;;;;;;;;;;26.35;46.19;99811.19;346143;28;818;-73
2023/07/17 00:37:14;;;;;;;;;;;;;;;26.34;46.31;99807.66;346009;28;1452;-73
2023/07/17 00:37:24;;;;;;;;;;;;;;;26.34;46.32;99812.19;346228;28;1048;-73
2023/07/17 00:37:34;;;;;;;;;;;;;;;26.36;46.19;99804.81;344737;28;1347;-73
2023/07/17 00:37:46;;;;;;;;;;;;;;;26.37;46.39;99804.66;343314;28;1468;-73
2023/07/17 00:37:56;;;;;;;;;;;;;;;26.38;46.15;99810.88;344358;28;3984;-74
2023/07/17 00:38:06;;;;;;;;;;;;;;;26.37;46.17;99804.66;346056;28;5260;-74
2023/07/17 00:38:16;;;;;;;;;;;;;;;26.38;46.12;99810.88;345129;28;2956;-74
2023/07/17 00:38:27;;;;;;;;;;;;;;;26.38;46.12;99802.81;345372;28;3271;-74
2023/07/17 00:38:37;;;;;;;;;;;;;;;26.39;45.97;99805.34;344882;28;816;-74
2023/07/17 00:38:47;;;;;;;;;;;;;;;26.41;46.04;99808.72;343919;28;809;-74
2023/07/17 00:38:57;;;;;;;;;;;;;;;26.43;46.24;99805.84;346150;28;780;-74
2023/07/17 00:39:07;;;;;;;;;;;;;;;26.44;46.05;99810.22;344820;28;1291;-74
2023/07/17 00:39:22;;;;;;;;;;;;;;;26.46;46.22;99808.22;343469;28;836;-73
2023/07/17 00:39:32;;;;;;;;;;;;;;;26.48;46.86;99809.72;343087;28;1288;-73
2023/07/17 00:39:42;;;;;;;;;;;;;;;26.50;46.00;99806.88;344342;28;1243;-73
2023/07/17 00:39:53;;;;;;;;;;;;;;;26.51;46.11;99808.56;344848;28;1584;-73
2023/07/17 00:40:04;;;;;;;;;;;;;;;26.51;46.08;99811.25;344451;28;1234;-73
2023/07/17 00:40:15;;;;;;;;;;;;;;;26.51;45.98;99813.94;342427;28;1413;-73
2023/07/17 00:40:25;;;;;;;;;;;;;;;26.47;45.36;99807.22;342074;28;1922;-73
2023/07/17 00:40:42;;;;;;;;;;;;;;;26.43;45.77;99811.22;342257;28;746;-73
2023/07/17 00:40:53;;;;;;;;;;;;;;;26.42;45.88;99801.50;340796;29;1241;-73
2023/07/17 00:41:03;;;;;;;;;;;;;;;26.42;45.92;99806.88;343536;28;787;-73
2023/07/17 00:41:13;;;;;;;;;;;;;;;26.44;45.65;99804.84;342047;28;833;-73
2023/07/17 00:41:23;;;;;;;;;;;;;;;26.45;45.78;99803.84;342204;28;1269;-73
2023/07/17 00:41:33;;;;;;;;;;;;;;;26.46;45.78;99805.53;342398;28;1507;-73
2023/07/17 00:41:44;;;;;;;;;;;;;;;26.44;45.79;99802.16;344528;28;1886;-73
2023/07/17 00:41:54;;;;;;;;;;;;;;;26.43;45.53;99808.53;343250;28;1859;-73
2023/07/17 00:42:05;;;;;;;;;;;;;;;26.43;45.79;99808.53;340887;28;825;-73
2023/07/17 00:42:15;;;;;;;;;;;;;;;26.44;45.58;99813.75;341736;28;1567;-73
2023/07/17 00:42:25;;;;;;;;;;;;;;;26.43;45.85;99800.47;338618;29;1748;-73
2023/07/17 00:42:36;;;;;;;;;;;;;;;26.41;45.52;99810.56;335535;29;906;-73
2023/07/17 00:42:46;;;;;;;;;;;;;;;26.40;45.74;99807.03;337444;29;1291;-73
2023/07/17 00:42:57;;;;;;;;;;;;;;;26.39;45.95;99805.34;338086;29;813;-73
2023/07/17 00:43:10;;;;;;;;;;;;;;;26.36;46.00;99807.50;335669;29;1203;-73
2023/07/17 00:43:20;;;;;;;;;;;;;;;26.36;46.01;99804.81;337125;29;1639;-73
2023/07/17 00:43:31;;;;;;;;;;;;;;;26.37;46.02;99806.50;337862;29;1791;-73
2023/07/17 00:43:41;;;;;;;;;;;;;;;26.38;46.04;99813.56;337817;29;2136;-73
2023/07/17 00:43:51;;;;;;;;;;;;;;;26.37;45.92;99809.19;335643;29;969;-73
2023/07/17 00:44:01;;;;;;;;;;;;;;;26.38;45.85;99810.88;323514;29;2354;-73
2023/07/17 00:44:12;;;;;;;;;;;;;;;26.35;45.68;99808.50;327968;29;2836;-73
2023/07/17 00:44:22;;;;;;;;;;;;;;;26.35;46.00;99813.88;325325;30;2528;-73
2023/07/17 00:44:35;;;;;;;;;;;;;;;26.34;45.84;99812.19;323790;30;2122;-73
2023/07/17 00:44:45;;;;;;;;;;;;;;;26.32;45.87;99814.19;323769;30;2223;-73
2023/07/17 00:44:56;;;;;;;;;;;;;;;26.33;45.78;99815.88;324667;30;1494;-73
2023/07/17 00:45:06;;;;;;;;;;;;;;;26.29;46.07;99811.78;325617;30;1207;-73
2023/07/17 00:45:16;;;;;;;;;;;;;;;26.27;45.95;99814.63;326024;30;1326;-73
2023/07/17 00:45:27;;;;;;;;;;;;;;;26.26;45.88;99810.25;325969;30;1991;-73
2023/07/17 00:45:37;;;;;;;;;;;;;;;26.26;45.95;99804.91;324458;30;1213;-73
2023/07/17 00:45:47;;;;;;;;;;;;;;;26.26;46.05;99809.41;321499;30;2392;-73
2023/07/17 00:45:57;;;;;;;;;;;;;;;26.27;46.00;99811.94;322860;30;2728;-73
2023/07/17 00:46:08;;;;;;;;;;;;;;;26.28;46.29;99807.44;325742;30;864;-73
2023/07/17 00:46:18;;;;;;;;;;;;;;;26.30;46.23;99805.44;326149;30;3398;-73
2023/07/17 00:46:29;;;;;;;;;;;;;;;26.32;45.92;99815.03;324929;30;3375;-73
2023/07/17 00:46:39;;;;;;;;;;;;;;;26.35;46.38;99813.88;323281;30;2856;-73
2023/07/17 00:46:49;;;;;;;;;;;;;;;26.36;46.16;99813.72;320904;30;864;-73
2023/07/17 00:47:00;;;;;;;;;;;;;;;26.37;45.76;99812.72;319106;30;2861;-73
2023/07/17 00:47:10;;;;;;;;;;;;;;;26.38;45.66;99819.78;316382;30;3865;-73
2023/07/17 00:47:20;;;;;;;;;;;;;;;26.31;45.60;99818.72;313949;30;3041;-73
2023/07/17 00:47:31;;;;;;;;;;;;;;;26.25;45.84;99815.78;315600;30;5537;-73
2023/07/17 00:47:41;;;;;;;;;;;;;;;26.23;45.66;99821.31;313373;31;2738;-73
2023/07/17 00:47:51;;;;;;;;;;;;;;;26.20;45.68;99813.56;311686;31;3697;-73
2023/07/17 00:48:04;;;;;;;;;;;;;;;26.19;45.88;99815.41;314389;31;3513;-73
2023/07/17 00:48:15;;;;;;;;;;;;;;;26.19;45.76;99818.09;317652;30;4160;-74
2023/07/17 00:48:25;;;;;;;;;;;;;;;26.22;46.00;99813.41;316762;31;4633;-74
2023/07/17 00:48:35;;;;;;;;;;;;;;;26.23;45.99;99815.09;316300;31;1203;-74
2023/07/17 00:48:45;;;;;;;;;;;;;;;26.25;46.07;99815.78;313580;31;4629;-74
2023/07/17 00:48:56;;;;;;;;;;;;;;;26.27;45.79;99819.16;309562;31;4181;-74
2023/07/17 00:49:06;;;;;;;;;;;;;;;26.29;46.03;99811.78;308559;32;1255;-74
2023/07/17 00:49:17;;;;;;;;;;;;;;;26.30;46.02;99810.78;309158;31;3307;-74
2023/07/17 00:49:27;;;;;;;;;;;;;;;26.29;45.56;99814.47;310653;31;2644;-74
2023/07/17 00:49:37;;;;;;;;;;;;;;;26.26;46.01;99812.94;310824;31;886;-74
2023/07/17 00:49:48;;;;;;;;;;;;;;;26.24;45.70;99811.41;310727;31;2982;-74
2023/07/17 00:49:59;;;;;;;;;;;;;;;26.22;46.01;99816.09;312259;31;4158;-74
2023/07/17 00:50:09;;;;;;;;;;;;;;;26.19;45.71;99815.41;310808;31;5301;-74
2023/07/17 00:50:19;;;;;;;;;;;;;;;26.18;45.82;99818.25;311746;31;1335;-74
2023/07/17 00:50:30;;;;;;;;;;;;;;;26.19;46.03;99812.72;311492;31;5637;-74
2023/07/17 00:50:40;;;;;;;;;;;;;;;26.18;46.08;99813.72;307087;31;6529;-74
2023/07/17 00:50:51;;;;;;;;;;;;;;;26.17;45.98;99816.56;304328;32;942;-74
2023/07/17 00:51:03;;;;;;;;;;;;;;;26.16;45.82;99812.22;301478;32;6499;-74
2023/07/17 00:51:13;;;;;;;;;;;;;;;26.13;46.11;99813.38;302798;32;5448;-74
2023/07/17 00:51:23;;;;;;;;;;;;;;;26.10;45.78;99821.72;305330;32;851;-74
2023/07/17 00:51:34;;;;;;;;;;;;;;;26.08;46.04;99813.00;305083;32;4517;-74
2023/07/17 00:51:44;;;;;;;;;;;;;;;26.07;45.94;99815.81;304694;32;3932;-73
2023/07/17 00:51:57;;;;;;;;;;;;;;;26.06;46.32;99806.94;300162;32;4191;-74
2023/07/17 00:52:07;;;;;;;;;;;;;;;26.06;46.02;99812.31;297954;33;1349;-74
2023/07/17 00:52:17;;;;;;;;;;;;;;;26.07;46.42;99811.31;296764;33;6103;-74
2023/07/17 00:52:28;;;;;;;;;;;;;;;26.09;46.22;99809.31;296078;32;6523;-74
2023/07/17 00:52:38;;;;;;;;;;;;;;;26.10;46.20;99811.00;298145;33;826;-74
2023/07/17 00:52:48;;;;;;;;;;;;;;;26.13;46.15;99810.69;295776;33;8183;-74
2023/07/17 00:52:59;;;;;;;;;;;;;;;26.15;45.98;99807.84;291409;33;9212;-74
2023/07/17 00:53:09;;;;;;;;;;;;;;;26.16;46.08;99805.00;289518;33;9854;-74
2023/07/17 00:53:19;;;;;;;;;;;;;;;26.21;46.04;99806.38;290184;34;1220;-74
2023/07/17 00:53:29;;;;;;;;;;;;;;;26.21;46.26;99807.22;289462;33;8560;-74
2023/07/17 00:55:31;;;;;;;;;;;;;;;26.11;45.87;99812.69;2481559;27;20204;-74
2023/07/17 00:55:41;;;;;;;;;;;;;;;26.10;46.08;99807.47;350048;28;1552;-74
2023/07/17 00:55:51;;;;;;;;;;;;;;;26.08;46.00;99802.25;350404;28;761;-73
2023/07/17 00:56:02;;;;;;;;;;;;;;;26.08;46.13;99807.63;348476;28;1500;-73
2023/07/17 00:56:12;;;;;;;;;;;;;;;26.07;46.06;99805.94;347560;28;879;-73
2023/07/17 00:56:23;;;;;;;;;;;;;;;26.08;46.02;99809.47;345260;28;3861;-73
2023/07/17 00:56:34;;;;;;;;;;;;;;;26.08;46.22;99813.00;344399;28;4863;-73
2023/07/17 00:56:44;;;;;;;;;;;;;;;26.08;46.17;99809.47;347228;28;3577;-73
2023/07/17 00:56:54;;;;;;;;;;;;;;;26.05;46.26;99807.94;347535;28;1415;-73
2023/07/17 00:57:05;;;;;;;;;;;;;;;26.03;45.96;99809.94;345205;28;3771;-73
2023/07/17 00:57:15;;;;;;;;;;;;;;;26.03;46.42;99811.78;345678;28;904;-73
2023/07/17 00:57:26;;;;;;;;;;;;;;;26.04;46.22;99816.13;347811;28;1118;-74
2023/07/17 00:57:36;;;;;;;;;;;;;;;26.03;46.46;99809.94;348232;28;1643;-74
2023/07/17 00:57:49;;;;;;;;;;;;;;;26.04;46.29;99816.97;347462;28;1207;-74
2023/07/17 00:57:59;;;;;;;;;;;;;;;26.05;46.23;99813.31;347462;28;1280;-74
2023/07/17 00:58:09;;;;;;;;;;;;;;;26.04;46.37;99810.78;346152;28;876;-74
2023/07/17 00:58:19;;;;;;;;;;;;;;;26.03;46.27;99809.94;344762;28;1335;-74
2023/07/17 00:58:30;;;;;;;;;;;;;;;26.03;46.37;99809.94;346268;28;702;-73
2023/07/17 00:58:40;;;;;;;;;;;;;;;26.04;46.30;99814.28;346290;28;951;-74
2023/07/17 00:58:51;;;;;;;;;;;;;;;26.06;46.31;99809.63;345968;28;1473;-74
2023/07/17 00:59:01;;;;;;;;;;;;;;;26.08;46.11;99812.16;346129;28;1310;-74
2023/07/17 00:59:14;;;;;;;;;;;;;;;26.10;46.12;99810.16;345411;28;1076;-74
2023/07/17 00:59:24;;;;;;;;;;;;;;;26.12;46.35;99811.69;344641;28;1232;-74
2023/07/17 00:59:34;;;;;;;;;;;;;;;26.11;46.12;99811.84;344930;28;1366;-74
2023/07/17 00:59:44;;;;;;;;;;;;;;;26.09;46.12;99812.00;346362;28;1199;-75
2023/07/17 00:59:55;;;;;;;;;;;;;;;26.09;46.27;99817.34;346906;28;905;-74
2023/07/17 01:00:06;;;;;;;;;;;;;;;26.10;46.23;99811.00;344885;28;925;-74
2023/07/17 01:00:17;;;;;;;;;;;;;;;26.08;46.08;99813.00;344849;28;860;-75
2023/07/17 01:00:27;;;;;;;;;;;;;;;26.08;45.89;99813.00;344940;28;805;-73
2023/07/17 01:00:38;;;;;;;;;;;;;;;26.09;45.97;99813.84;347426;28;1418;-73
2023/07/17 01:00:48;;;;;;;;;;;;;;;26.10;46.10;99807.47;347514;28;1405;-73
2023/07/17 01:00:58;;;;;;;;;;;;;;;26.13;46.19;99810.69;348726;28;896;-73
2023/07/17 01:01:08;;;;;;;;;;;;;;;26.14;46.08;99819.56;347493;28;887;-73
2023/07/17 01:01:19;;;;;;;;;;;;;;;26.15;45.92;99808.69;347511;28;1043;-74
2023/07/17 01:01:29;;;;;;;;;;;;;;;26.16;45.88;99815.72;344722;28;1314;-74
2023/07/17 01:01:40;;;;;;;;;;;;;;;26.16;45.84;99814.88;344059;28;1294;-74
2023/07/17 01:01:50;;;;;;;;;;;;;;;26.15;45.86;99813.22;343546;28;1125;-74
2023/07/17 01:02:00;;;;;;;;;;;;;;;26.15;46.07;99816.72;345009;28;788;-74